Time;durP1;ratioP1;P1;durP2;ratioP2;P2;SDS_P1;SDS_P2;PMS_P1;PMS_P2;Temp;Humidity;BMP_temperature;BMP_pressure;BME280_temperature;BME280_humidity;BME280_pressure;Samples;Min_cycle;Max_cycle;Signal;HPM_P1;HPM_P2
2022/03/27 00:01:34;;;;;;;21.57;10.83;;;;;;;14.20;33.03;101274.69;5366904;32;34898;-74
2022/03/27 00:04:36;;;;;;;20.63;10.27;;;;;;;14.49;32.79;101281.50;5361575;32;44393;-68
2022/03/27 00:07:39;;;;;;;20.73;10.02;;;;;;;14.35;32.94;101278.50;5377595;32;34183;-68
2022/03/27 00:14:06;;;;;;;23.10;10.00;;;;;;;14.50;32.65;101280.56;5374539;32;33929;-69
2022/03/27 00:17:08;;;;;;;21.47;10.97;;;;;;;15.04;31.98;101276.50;5359188;32;44860;-74
2022/03/27 00:20:12;;;;;;;23.43;10.80;;;;;;;14.70;32.49;101278.88;5358754;32;34929;-73
2022/03/27 00:23:14;;;;;;;20.58;10.98;;;;;;;14.15;33.43;101284.59;5364024;32;35687;-68
2022/03/27 00:26:16;;;;;;;24.33;10.90;;;;;;;14.79;32.36;101275.81;5361681;32;35182;-75
2022/03/27 00:29:21;;;;;;;21.87;11.47;;;;;;;14.82;32.28;101276.56;5379694;32;35039;-76
2022/03/27 00:32:23;;;;;;;22.50;10.73;;;;;;;14.42;32.92;101268.53;5363205;32;35570;-75
2022/03/27 00:35:26;;;;;;;20.63;11.10;;;;;;;14.24;33.24;101283.38;5359645;32;35467;-67
2022/03/27 00:38:29;;;;;;;25.57;10.87;;;;;;;14.00;33.75;101290.47;5350455;32;35567;-73
2022/03/27 00:41:31;;;;;;;22.62;10.90;;;;;;;14.05;33.61;101288.53;5349301;32;34741;-68
2022/03/27 00:44:34;;;;;;;24.57;11.07;;;;;;;14.09;33.74;101290.09;5368337;32;35388;-67
2022/03/27 00:47:36;;;;;;;;;;;;;;;14.14;33.60;101297.87;5360070;32;45328;-73
2022/03/27 00:50:38;;;;;;;24.47;10.67;;;;;;;14.11;33.72;101300.66;5373052;32;35045;-74
2022/03/27 00:53:40;;;;;;;24.08;11.48;;;;;;;14.18;33.48;101294.19;5363370;32;35741;-68
2022/03/27 00:56:42;;;;;;;28.40;11.27;;;;;;;14.43;33.15;101297.59;5360667;32;34812;-67
2022/03/27 00:59:44;;;;;;;23.75;10.80;;;;;;;14.42;33.22;101298.47;5369982;32;35178;-77
2022/03/27 01:02:47;;;;;;;25.52;10.60;;;;;;;14.23;33.40;101302.78;5361286;32;33230;-73
2022/03/27 01:05:57;;;;;;;21.73;10.70;;;;;;;13.80;34.18;101301.81;5365251;32;34730;-75
2022/03/27 01:12:32;;;;;;;22.25;10.02;;;;;;;13.86;33.90;101296.31;5363874;32;34430;-67
2022/03/27 01:15:45;;;;;;;24.37;10.57;;;;;;;13.99;33.90;101289.62;5346218;32;45315;-73
2022/03/27 01:18:48;;;;;;;21.15;10.32;;;;;;;14.19;33.47;101295.91;5356838;32;35416;-66
2022/03/27 01:21:50;;;;;;;22.30;10.97;;;;;;;13.99;33.76;101299.34;5375401;32;34742;-67
2022/03/27 01:24:52;;;;;;;23.30;11.77;;;;;;;13.21;35.27;101311.03;5350877;32;36442;-74
2022/03/27 01:27:55;;;;;;;22.00;11.43;;;;;;;13.01;35.78;101309.03;5358870;32;36438;-73
2022/03/27 01:30:57;;;;;;;22.67;11.40;;;;;;;13.00;35.90;101317.84;5359841;32;34632;-73
2022/03/27 01:33:59;;;;;;;23.93;10.93;;;;;;;13.34;35.24;101314.09;5372892;32;36365;-67
2022/03/27 01:37:13;;;;;;;26.33;11.47;;;;;;;13.20;35.52;101314.59;5370010;32;34962;-67
2022/03/27 01:40:16;;;;;;;21.98;10.82;;;;;;;12.68;36.57;101318.94;5333040;32;34910;-67
2022/03/27 01:43:18;;;;;;;22.83;10.93;;;;;;;12.84;36.22;101321.09;5358957;32;34674;-68
2022/03/27 01:46:20;;;;;;;22.93;11.00;;;;;;;12.39;37.07;101329.56;5347588;32;33676;-74
2022/03/27 01:49:24;;;;;;;24.00;11.30;;;;;;;13.17;35.44;101330.47;5338437;32;34959;-67
2022/03/27 01:52:26;;;;;;;;;;;;;;;12.80;35.99;101330.84;5344933;32;34206;-67
2022/03/27 01:55:28;;;;;;;21.50;10.40;;;;;;;12.55;36.61;101329.94;5355970;32;34559;-67
2022/03/27 01:58:30;;;;;;;26.23;10.87;;;;;;;13.06;35.54;101331.75;5366673;32;34285;-74
2022/03/27 02:01:34;;;;;;;23.53;11.00;;;;;;;12.56;36.44;101337.81;5350576;32;33645;-68
2022/03/27 02:04:37;;;;;;;25.50;11.93;;;;;;;12.76;36.10;101337.16;5369186;32;44496;-67
2022/03/27 02:07:42;;;;;;;22.67;10.83;;;;;;;12.72;36.35;101349.59;5349570;32;35221;-73
2022/03/27 02:10:44;;;;;;;26.47;11.40;;;;;;;12.94;35.97;101339.16;5356825;32;34202;-73
2022/03/27 02:13:46;;;;;;;26.90;11.07;;;;;;;12.73;36.40;101337.25;5353035;32;35609;-78
2022/03/27 02:16:48;;;;;;;23.70;11.37;;;;;;;12.90;36.25;101332.28;5351611;32;34160;-67
2022/03/27 02:19:51;;;;;;;32.93;12.43;;;;;;;12.62;36.84;101342.00;5383345;32;35363;-74
2022/03/27 02:22:53;;;;;;;25.23;12.03;;;;;;;12.52;37.21;101338.81;5359982;32;34492;-73
2022/03/27 02:25:55;;;;;;;21.53;11.03;;;;;;;12.50;37.34;101351.19;5369551;32;35222;-67
2022/03/27 02:28:58;;;;;;;24.73;11.18;;;;;;;13.01;36.43;101353.91;5352475;32;34617;-73
2022/03/27 02:32:00;;;;;;;26.33;11.77;;;;;;;12.87;36.86;101352.63;5356874;32;34792;-73
2022/03/27 02:35:03;;;;;;;25.37;10.53;;;;;;;12.65;37.17;101355.13;5363883;32;35809;-75
2022/03/27 02:38:05;;;;;;;21.73;11.07;;;;;;;13.42;35.83;101363.97;5357347;32;44693;-73
2022/03/27 02:41:07;;;;;;;28.25;11.12;;;;;;;13.50;35.71;101354.00;5360846;32;34937;-67
2022/03/27 02:44:12;;;;;;;22.35;10.80;;;;;;;13.63;35.44;101365.84;5366268;32;34922;-73
2022/03/27 02:47:14;;;;;;;23.80;11.40;;;;;;;13.68;35.43;101357.75;5371105;32;34116;-77
2022/03/27 02:50:16;;;;;;;26.03;11.47;;;;;;;13.58;35.45;101369.56;5358865;32;34870;-67
2022/03/27 02:53:19;;;;;;;23.93;11.73;;;;;;;13.37;35.70;101364.12;5376703;32;34915;-69
2022/03/27 02:56:21;;;;;;;22.73;11.53;;;;;;;12.69;37.23;101359.37;5361313;32;35155;-75
2022/03/27 02:59:24;;;;;;;27.07;11.30;;;;;;;12.71;37.25;101373.38;5351716;32;34104;-78
2022/03/27 03:02:26;;;;;;;22.17;11.18;;;;;;;13.13;36.40;101368.44;5368675;32;35286;-73
2022/03/27 03:05:29;;;;;;;25.00;11.63;;;;;;;12.78;37.27;101369.63;5355280;32;35591;-68
2022/03/27 03:08:31;;;;;;;19.83;10.63;;;;;;;13.46;35.95;101374.38;5365849;32;34361;-74
2022/03/27 03:11:33;;;;;;;27.97;10.57;;;;;;;12.96;36.96;101374.31;5363370;32;35490;-74
2022/03/27 03:14:36;;;;;;;26.87;11.63;;;;;;;13.94;35.00;101370.00;5364895;32;44612;-74
2022/03/27 03:17:38;;;;;;;22.47;11.50;;;;;;;13.39;36.09;101382.56;5362894;32;34807;-67
2022/03/27 03:20:40;;;;;;;23.40;11.43;;;;;;;13.71;35.40;101384.03;5358882;32;32614;-68
2022/03/27 03:23:43;;;;;;;25.48;11.38;;;;;;;13.20;36.26;101393.78;5377187;32;34887;-78
2022/03/27 03:26:45;;;;;;;25.77;11.03;;;;;;;12.88;37.00;101391.28;5360897;32;34793;-68
2022/03/27 03:29:47;;;;;;;33.13;12.17;;;;;;;12.71;37.33;101394.47;5375638;32;35291;-77
2022/03/27 03:32:50;;;;;;;29.83;13.40;;;;;;;12.33;38.34;101412.34;5348435;32;35784;-67
2022/03/27 03:35:52;;;;;;;31.20;12.00;;;;;;;12.44;38.28;101418.16;5368358;32;34614;-74
2022/03/27 03:38:54;;;;;;;22.40;11.90;;;;;;;12.17;38.70;101421.59;5355097;32;35306;-67
2022/03/27 03:41:57;;;;;;;29.47;12.47;;;;;;;11.61;39.76;101424.06;5353440;32;32778;-73
2022/03/27 03:44:59;;;;;;;24.77;11.77;;;;;;;12.06;38.96;101428.97;5376573;32;35649;-73
2022/03/27 03:48:01;;;;;;;29.63;13.00;;;;;;;12.44;37.98;101425.22;5348574;32;34272;-67
2022/03/27 03:51:03;;;;;;;27.83;11.53;;;;;;;12.03;39.19;101437.81;5375614;32;34862;-77
2022/03/27 03:54:08;;;;;;;26.03;12.10;;;;;;;12.26;38.84;101431.03;5366800;32;44622;-75
2022/03/27 03:57:10;;;;;;;23.80;11.33;;;;;;;12.01;39.33;101436.16;5365710;32;35550;-77
2022/03/27 04:00:13;;;;;;;22.50;10.97;;;;;;;13.28;37.13;101430.47;5369966;32;35044;-74
2022/03/27 04:03:15;;;;;;;25.55;11.55;;;;;;;12.52;38.73;101440.81;5362140;32;35346;-73
2022/03/27 04:06:17;;;;;;;22.37;10.57;;;;;;;12.10;39.71;101454.31;5376725;32;36702;-74
2022/03/27 04:09:22;;;;;;;23.53;11.67;;;;;;;12.25;39.52;101459.16;5359756;32;34555;-67
2022/03/27 04:12:24;;;;;;;25.00;12.00;;;;;;;11.97;40.34;101458.19;5362155;32;36762;-73
2022/03/27 04:15:27;;;;;;;26.80;12.30;;;;;;;11.86;40.48;101464.66;5348035;32;34850;-74
2022/03/27 04:18:49;;;;;;;30.47;12.70;;;;;;;12.50;39.28;101469.00;5356926;32;34680;-67
2022/03/27 04:21:51;;;;;;;23.60;12.57;;;;;;;13.30;37.63;101456.81;5373197;32;35725;-73
2022/03/27 04:24:53;;;;;;;24.57;12.03;;;;;;;13.41;37.28;101475.81;5362362;32;34168;-78
2022/03/27 04:27:55;;;;;;;27.63;11.77;;;;;;;11.65;41.15;101500.25;5368691;32;34906;-76
2022/03/27 04:30:58;;;;;;;22.70;11.47;;;;;;;12.04;40.51;101501.91;5361083;32;34695;-67
2022/03/27 04:34:00;;;;;;;22.07;11.60;;;;;;;12.75;38.92;101493.69;5372406;32;38523;-78
2022/03/27 04:37:04;;;;;;;26.30;11.97;;;;;;;13.64;36.92;101482.94;5364807;32;34918;-73
2022/03/27 04:40:08;;;;;;;21.53;11.43;;;;;;;12.61;38.92;101509.94;5343595;32;44933;-67
2022/03/27 04:43:10;;;;;;;25.00;11.77;;;;;;;12.87;38.60;101511.78;5361484;32;36275;-67
2022/03/27 04:46:12;;;;;;;24.50;12.77;;;;;;;12.92;38.31;101507.25;5363437;32;34092;-77
2022/03/27 04:49:14;;;;;;;27.20;11.93;;;;;;;11.98;40.37;101531.06;5380494;32;35051;-75
2022/03/27 04:52:17;;;;;;;28.70;13.20;;;;;;;12.29;39.81;101533.72;5362448;32;35322;-74
2022/03/27 04:55:19;;;;;;;22.83;12.30;;;;;;;12.50;39.51;101548.97;5366153;32;34425;-79
2022/03/27 04:58:21;;;;;;;25.90;10.97;;;;;;;13.53;37.29;101530.84;5363253;32;34916;-67
2022/03/27 05:01:24;;;;;;;32.37;12.90;;;;;;;13.23;37.72;101551.19;5344254;32;35072;-73
2022/03/27 05:04:27;;;;;;;24.58;11.20;;;;;;;11.97;40.68;101568.84;5375294;32;35889;-67
2022/03/27 05:07:29;;;;;;;27.05;11.65;;;;;;;13.36;37.79;101563.09;5331219;32;35226;-66
2022/03/27 05:10:31;;;;;;;20.23;10.23;;;;;;;13.91;36.33;101560.38;5360631;32;34734;-67
2022/03/27 05:13:33;;;;;;;22.87;10.47;;;;;;;13.47;37.55;101565.41;5371377;32;44619;-71
2022/03/27 05:16:36;;;;;;;25.63;12.10;;;;;;;12.02;40.60;101580.16;5361874;32;34262;-68
2022/03/27 05:19:38;;;;;;;21.63;10.83;;;;;;;12.12;41.10;101582.50;5365518;32;34388;-67
2022/03/27 05:22:43;;;;;;;23.50;11.07;;;;;;;12.22;40.80;101584.88;5366471;32;34915;-70
2022/03/27 05:25:48;;;;;;;21.93;10.27;;;;;;;12.75;39.94;101580.75;5376993;32;34787;-72
2022/03/27 05:28:50;;;;;;;23.90;9.90;;;;;;;13.17;38.80;101586.53;5361498;32;34551;-75
2022/03/27 05:31:53;;;;;;;20.73;9.25;;;;;;;13.88;37.55;101577.22;5374202;32;35352;-75
2022/03/27 05:34:55;;;;;;;16.80;8.88;;;;;;;13.03;38.97;101588.72;5365135;32;35905;-67
2022/03/27 05:37:58;;;;;;;19.47;8.67;;;;;;;13.95;37.48;101573.44;5364669;32;34881;-74
2022/03/27 05:41:01;;;;;;;15.25;8.50;;;;;;;15.05;35.21;101582.69;5343904;32;36597;-78
2022/03/27 05:44:03;;;;;;;17.55;8.98;;;;;;;15.95;33.16;101589.66;5365978;32;34659;-78
2022/03/27 05:47:06;;;;;;;18.53;9.07;;;;;;;13.95;36.50;101605.16;5374403;32;44496;-75
2022/03/27 05:50:09;;;;;;;19.67;8.80;;;;;;;15.04;34.90;101594.19;5356567;32;34976;-68
2022/03/27 05:53:12;;;;;;;14.65;8.05;;;;;;;15.66;33.70;101597.97;5374686;32;34657;-78
2022/03/27 05:56:15;;;;;;;18.00;8.93;;;;;;;15.95;32.79;101594.09;5361681;32;34783;-74
2022/03/27 05:59:17;;;;;;;19.98;8.60;;;;;;;14.11;36.57;101615.22;5364843;32;35417;-74
2022/03/27 06:02:19;;;;;;;19.90;9.38;;;;;;;16.11;32.78;101612.87;5367495;32;35242;-75
2022/03/27 06:05:24;;;;;;;17.62;9.13;;;;;;;15.62;33.80;101622.84;5366866;32;34912;-74
2022/03/27 06:08:27;;;;;;;17.23;9.07;;;;;;;15.55;34.06;101642.53;5371415;32;34050;-68
2022/03/27 06:11:29;;;;;;;16.42;8.82;;;;;;;16.16;32.69;101638.25;5359876;32;35339;-68
2022/03/27 06:14:32;;;;;;;16.50;8.93;;;;;;;15.80;33.22;101647.75;5379473;32;34273;-75
2022/03/27 06:17:39;;;;;;;15.25;7.93;;;;;;;17.76;30.13;101634.53;5361700;32;36003;-69
2022/03/27 06:20:41;;;;;;;16.58;8.63;;;;;;;17.35;30.33;101642.69;5360298;32;35420;-74
2022/03/27 06:23:43;;;;;;;15.80;8.45;;;;;;;15.93;32.95;101646.31;5372204;32;34667;-68
2022/03/27 06:26:45;;;;;;;13.77;7.93;;;;;;;16.25;32.61;101656.44;5360586;32;34568;-67
2022/03/27 06:29:47;;;;;;;15.83;8.37;;;;;;;17.03;31.58;101652.16;5376880;32;35358;-75
2022/03/27 06:32:51;;;;;;;16.08;8.32;;;;;;;18.47;28.99;101637.13;5359145;32;35372;-67
2022/03/27 06:35:53;;;;;;;17.05;7.78;;;;;;;18.14;29.02;101653.87;5372436;32;35155;-75
2022/03/27 06:38:56;;;;;;;15.63;8.40;;;;;;;17.07;31.15;101664.37;5344168;32;35495;-68
2022/03/27 06:41:58;;;;;;;16.83;8.15;;;;;;;18.48;29.03;101662.78;5341176;32;35837;-74
2022/03/27 06:45:00;;;;;;;15.13;8.20;;;;;;;16.98;31.43;101678.06;5373814;32;34493;-68
2022/03/27 06:48:03;;;;;;;14.07;8.32;;;;;;;17.28;30.74;101681.97;5361788;32;34850;-68
2022/03/27 06:51:05;;;;;;;12.75;7.25;;;;;;;18.14;29.35;101668.06;5375106;32;45847;-73
2022/03/27 06:54:08;;;;;;;;;;;;;;;17.69;30.48;101664.97;5366582;32;34771;-76
2022/03/27 06:57:10;;;;;;;15.30;7.60;;;;;;;17.25;31.01;101676.78;5373709;32;34667;-76
2022/03/27 07:03:35;;;;;;;15.23;7.45;;;;;;;17.74;30.14;101679.81;5361165;32;44638;-68
2022/03/27 07:06:42;;;;;;;12.02;7.22;;;;;;;19.14;28.19;101673.53;5375756;32;34959;-74
2022/03/27 07:09:45;;;;;;;11.80;6.60;;;;;;;18.37;29.43;101685.53;5359310;32;34966;-78
2022/03/27 07:12:48;;;;;;;13.10;6.70;;;;;;;19.07;28.15;101678.31;5374809;32;34700;-74
2022/03/27 07:15:50;;;;;;;12.27;5.80;;;;;;;17.69;30.95;101686.25;5358469;32;35270;-68
2022/03/27 07:18:52;;;;;;;13.40;6.62;;;;;;;18.97;29.02;101685.09;5356058;32;35283;-74
2022/03/27 07:21:54;;;;;;;15.02;6.95;;;;;;;19.99;27.21;101681.19;5375904;32;34958;-73
2022/03/27 07:24:57;;;;;;;13.52;6.85;;;;;;;18.21;29.91;101689.88;5359874;32;35010;-68
2022/03/27 07:27:59;;;;;;;14.40;7.22;;;;;;;18.88;29.02;101690.91;5376085;32;34927;-68
2022/03/27 07:31:02;;;;;;;11.75;6.25;;;;;;;19.58;28.25;101689.75;5359279;32;36101;-68
2022/03/27 07:34:05;;;;;;;11.05;5.80;;;;;;;21.99;24.53;101692.81;5382049;32;44564;-74
2022/03/27 07:37:08;;;;;;;;;;;;;;;20.71;26.16;101696.47;5364376;32;34954;-68
2022/03/27 07:40:12;;;;;;;10.50;5.90;;;;;;;18.97;29.00;101710.88;5339832;32;34855;-76
2022/03/27 07:43:14;;;;;;;12.10;6.70;;;;;;;20.43;26.86;101704.41;5380483;32;34911;-75
2022/03/27 07:46:16;;;;;;;12.80;6.20;;;;;;;18.59;29.59;101711.03;5353655;32;36549;-69
2022/03/27 07:49:19;;;;;;;12.00;6.62;;;;;;;21.25;25.75;101710.06;5374802;32;34218;-69
2022/03/27 07:52:22;;;;;;;20.50;6.90;;;;;;;21.27;25.52;101705.47;5361924;32;34123;-74
2022/03/27 07:55:25;;;;;;;14.85;6.87;;;;;;;19.83;27.37;101707.03;5382711;32;36465;-74
2022/03/27 07:58:29;;;;;;;13.25;7.25;;;;;;;18.69;29.23;101717.66;5380012;32;35656;-74
2022/03/27 08:01:31;;;;;;;12.15;7.00;;;;;;;17.62;31.18;101720.25;5344445;32;35379;-68
2022/03/27 08:04:34;;;;;;;12.27;6.62;;;;;;;18.42;30.00;101711.91;5363206;32;35097;-73
2022/03/27 08:07:36;;;;;;;;;;;;;;;19.40;28.34;101715.59;5355836;32;34639;-69
2022/03/27 08:10:38;;;;;;;11.57;6.25;;;;;;;20.11;27.54;101701.84;5365807;32;35748;-74
2022/03/27 08:13:41;;;;;;;11.65;6.60;;;;;;;19.44;28.27;101709.13;5366625;32;35235;-75
2022/03/27 08:16:43;;;;;;;14.90;7.35;;;;;;;20.35;27.47;101695.97;5364474;32;35399;-78
2022/03/27 08:19:47;;;;;;;19.73;10.18;;;;;;;19.84;28.16;101708.75;5364974;32;37064;-75
2022/03/27 08:22:49;;;;;;;12.23;7.12;;;;;;;19.26;29.37;101711.97;5370712;32;34857;-75
2022/03/27 08:29:12;;;;;;;11.55;6.50;;;;;;;21.45;25.87;101708.84;5366065;32;44694;-74
2022/03/27 08:32:16;;;;;;;13.02;6.47;;;;;;;21.55;25.45;101707.28;5374538;32;34763;-67
2022/03/27 08:35:18;;;;;;;13.45;7.55;;;;;;;20.11;27.53;101717.00;5346283;32;34394;-69
2022/03/27 08:38:20;;;;;;;11.45;6.57;;;;;;;21.32;25.44;101714.13;5349987;32;34592;-69
2022/03/27 08:41:25;;;;;;;11.75;6.97;;;;;;;21.79;24.76;101712.88;5364739;32;35205;-69
2022/03/27 08:44:29;;;;;;;12.80;6.65;;;;;;;20.59;26.45;101707.91;5361514;32;34118;-69
2022/03/27 08:47:32;;;;;;;11.73;6.60;;;;;;;21.03;26.06;101710.53;5377201;32;35157;-68
2022/03/27 08:50:43;;;;;;;16.45;7.70;;;;;;;21.43;25.38;101710.72;5346367;32;42679;-74
2022/03/27 08:53:56;;;;;;;12.90;7.70;;;;;;;20.49;26.78;101712.97;5356368;32;35197;-67
2022/03/27 08:57:09;;;;;;;11.93;6.78;;;;;;;21.60;25.50;101712.34;5370489;32;36224;-75
2022/03/27 09:00:13;;;;;;;12.68;7.50;;;;;;;21.35;25.89;101718.41;5359279;32;45392;-68
2022/03/27 09:03:15;;;;;;;12.98;7.12;;;;;;;24.21;22.07;101707.47;5371533;32;34902;-69
2022/03/27 09:06:17;;;;;;;12.18;7.12;;;;;;;24.50;21.51;101707.13;5352818;32;34620;-68
2022/03/27 09:09:20;;;;;;;13.35;7.53;;;;;;;22.97;23.39;101704.91;5372748;32;34206;-69
2022/03/27 09:12:22;;;;;;;14.23;7.60;;;;;;;21.93;24.76;101709.28;5359468;32;35872;-70
2022/03/27 09:15:24;;;;;;;13.68;7.95;;;;;;;23.22;23.09;101706.72;5356875;32;35399;-69
2022/03/27 09:18:42;;;;;;;13.88;7.50;;;;;;;19.83;27.99;101713.22;5371005;32;35402;-76
2022/03/27 09:21:52;;;;;;;14.40;7.55;;;;;;;21.95;24.81;101710.03;5348133;32;35368;-73
2022/03/27 09:24:58;;;;;;;12.18;7.50;;;;;;;21.00;26.01;101708.06;5375602;32;34169;-69
2022/03/27 09:28:01;;;;;;;15.00;7.82;;;;;;;23.51;22.80;101699.25;5346570;32;35524;-69
2022/03/27 09:31:05;;;;;;;;;;;;;;;23.45;22.87;101711.28;5351317;32;34704;-69
2022/03/27 09:34:07;;;;;;;12.60;7.78;;;;;;;23.18;23.33;101694.47;5379029;32;45316;-73
2022/03/27 09:37:28;;;;;;;15.30;7.93;;;;;;;21.48;25.36;101705.97;5359690;32;36935;-79
2022/03/27 09:40:36;;;;;;;14.35;8.23;;;;;;;23.23;23.33;101698.56;5351958;32;34250;-75
2022/03/27 09:43:38;;;;;;;14.07;8.93;;;;;;;22.32;24.33;101700.44;5360862;32;45182;-75
2022/03/27 09:47:02;;;;;;;16.65;10.65;;;;;;;21.45;25.30;101697.28;5357199;32;34203;-76
2022/03/27 09:50:05;;;;;;;13.80;8.38;;;;;;;22.39;24.08;101687.47;5375051;32;44028;-68
2022/03/27 09:53:35;;;;;;;12.95;7.80;;;;;;;24.54;21.67;101689.78;5351786;32;36389;-74
2022/03/27 09:56:38;;;;;;;17.02;8.10;;;;;;;24.23;21.71;101685.88;5368956;32;43270;-76
2022/03/27 09:59:40;;;;;;;14.82;8.23;;;;;;;25.18;20.84;101692.78;5362958;32;34039;-70
2022/03/27 10:02:43;;;;;;;14.70;8.38;;;;;;;26.02;19.67;101687.75;5364620;32;34664;-68
2022/03/27 10:05:46;;;;;;;15.75;8.00;;;;;;;26.63;18.77;101680.72;5354626;32;34082;-71
2022/03/27 10:08:48;;;;;;;13.13;7.87;;;;;;;25.07;20.74;101684.75;5369009;32;35350;-75
2022/03/27 10:11:51;;;;;;;15.70;8.23;;;;;;;24.88;20.83;101679.06;5372260;32;35314;-75
2022/03/27 10:14:56;;;;;;;15.07;8.18;;;;;;;26.08;19.47;101676.44;5357837;32;34935;-74
2022/03/27 10:18:05;;;;;;;11.63;7.28;;;;;;;24.73;20.69;101687.37;5376562;32;33074;-75
2022/03/27 10:21:08;;;;;;;12.43;7.80;;;;;;;24.84;20.66;101684.69;5357311;32;43747;-74
2022/03/27 10:24:14;;;;;;;15.65;8.68;;;;;;;26.08;19.12;101677.34;5361555;32;34172;-80
2022/03/27 10:27:19;;;;;;;12.80;8.43;;;;;;;25.53;20.05;101681.03;5379799;32;33721;-70
2022/03/27 10:30:21;;;;;;;15.07;7.72;;;;;;;25.00;20.49;101695.09;5348066;32;35247;-71
2022/03/27 10:33:25;;;;;;;13.10;8.23;;;;;;;26.98;18.46;101688.44;5373225;32;34794;-74
2022/03/27 10:36:43;;;;;;;18.30;8.77;;;;;;;23.53;21.62;101697.31;5363017;32;34663;-68
2022/03/27 10:40:00;;;;;;;12.45;8.10;;;;;;;24.13;21.51;101688.38;5349091;32;36523;-75
2022/03/27 10:43:11;;;;;;;13.88;7.97;;;;;;;24.25;21.02;101684.78;5371275;32;35551;-74
2022/03/27 10:46:21;;;;;;;13.60;8.10;;;;;;;25.76;19.62;101671.06;5363345;32;34396;-75
2022/03/27 10:49:23;;;;;;;13.62;8.15;;;;;;;26.23;19.06;101663.53;5361386;32;35443;-74
2022/03/27 10:52:26;;;;;;;14.85;7.70;;;;;;;26.42;18.24;101663.72;5360795;32;35028;-74
2022/03/27 10:55:47;;;;;;;13.05;7.70;;;;;;;27.39;17.48;101659.63;5374503;32;35009;-76
2022/03/27 10:59:07;;;;;;;12.20;7.93;;;;;;;23.51;22.02;101667.06;5368999;32;35443;-69
2022/03/27 11:02:51;;;;;;;12.73;7.25;;;;;;;24.01;21.09;101670.50;5359663;32;44946;-74
2022/03/27 11:06:00;;;;;;;13.23;7.78;;;;;;;24.52;20.74;101662.16;5365379;32;34203;-69
2022/03/27 11:09:05;;;;;;;11.32;7.85;;;;;;;24.11;21.06;101662.62;5361822;32;35303;-69
2022/03/27 11:12:24;;;;;;;17.20;7.82;;;;;;;25.00;20.10;101662.81;5361902;32;42937;-69
2022/03/27 11:15:26;;;;;;;14.73;7.60;;;;;;;24.78;20.24;101673.56;5371242;32;33730;-75
2022/03/27 11:18:36;;;;;;;14.00;7.30;;;;;;;24.17;21.12;101660.34;5356134;32;34502;-75
2022/03/27 11:21:38;;;;;;;12.45;7.60;;;;;;;23.03;22.17;101658.91;5372983;32;44827;-70
2022/03/27 11:24:40;;;;;;;17.58;8.85;;;;;;;24.96;19.95;101649.75;5361365;32;33014;-76
2022/03/27 11:28:15;;;;;;;19.40;8.00;;;;;;;24.01;20.88;101655.25;5355121;32;34505;-78
2022/03/27 11:31:28;;;;;;;17.40;7.15;;;;;;;21.96;23.20;101650.22;5366588;32;34942;-75
2022/03/27 11:34:30;;;;;;;14.10;7.70;;;;;;;23.50;21.51;101641.19;5352874;32;34772;-75
2022/03/27 11:37:32;;;;;;;15.98;7.97;;;;;;;24.52;20.44;101637.97;5372245;32;34617;-76
2022/03/27 11:40:39;;;;;;;13.50;7.30;;;;;;;25.70;19.09;101621.25;5337143;32;44807;-75
2022/03/27 11:43:42;;;;;;;13.95;8.02;;;;;;;23.21;21.41;101636.13;5343280;32;34842;-70
2022/03/27 11:46:52;;;;;;;14.85;8.15;;;;;;;23.86;20.96;101636.78;5373809;32;35695;-68
2022/03/27 11:49:54;;;;;;;16.98;8.18;;;;;;;25.96;18.61;101616.41;5348141;32;34901;-76
2022/03/27 11:52:57;;;;;;;15.90;8.65;;;;;;;27.48;16.91;101606.63;5373972;32;34853;-69
2022/03/27 11:56:06;;;;;;;12.13;7.45;;;;;;;27.02;17.25;101607.22;5362443;32;34984;-69
2022/03/27 11:59:09;;;;;;;15.25;7.60;;;;;;;26.64;17.87;101606.91;5372823;32;44993;-76
2022/03/27 12:02:11;;;;;;;;;;;;;;;26.56;17.91;101611.28;5361231;32;34212;-75
2022/03/27 12:05:14;;;;;;;20.35;8.10;;;;;;;27.06;17.16;101606.00;5361537;32;34478;-75
2022/03/27 12:08:17;;;;;;;;;;;;;;;24.98;19.33;101615.50;5361900;32;35392;-69
2022/03/27 12:11:23;;;;;;;12.00;7.28;;;;;;;23.62;21.20;101602.75;5358138;32;34921;-75
2022/03/27 12:14:25;;;;;;;14.00;7.25;;;;;;;22.38;22.66;101610.78;5359793;32;35606;-69
2022/03/27 12:17:31;;;;;;;12.80;7.68;;;;;;;25.37;19.20;101606.03;5358036;32;34806;-75
2022/03/27 12:20:47;;;;;;;12.60;7.37;;;;;;;23.55;20.85;101600.59;5365818;32;37390;-75
2022/03/27 12:23:52;;;;;;;13.45;7.25;;;;;;;26.04;18.21;101584.28;5372846;32;34844;-80
2022/03/27 12:30:15;;;;;;;11.95;7.05;;;;;;;26.77;17.51;101584.28;5374053;32;35036;-76
2022/03/27 12:33:19;;;;;;;11.98;6.82;;;;;;;28.23;15.97;101575.34;5362152;32;34573;-68
2022/03/27 12:36:22;;;;;;;13.75;7.22;;;;;;;28.99;14.87;101573.41;5366876;32;34616;-68
2022/03/27 12:39:24;;;;;;;;;;;;;;;23.97;19.85;101573.25;5344126;32;35263;-69
2022/03/27 12:42:36;;;;;;;12.77;7.50;;;;;;;27.44;16.70;101571.00;5356115;32;34762;-69
2022/03/27 12:45:44;;;;;;;13.75;7.53;;;;;;;27.48;16.52;101566.13;5375723;32;44527;-72
2022/03/27 12:49:08;;;;;;;12.57;6.80;;;;;;;28.28;15.69;101562.25;5371423;32;34694;-75
2022/03/27 12:52:12;;;;;;;13.02;7.35;;;;;;;28.34;15.53;101559.00;5363730;32;44565;-76
2022/03/27 12:55:14;;;;;;;13.43;7.00;;;;;;;24.31;19.63;101584.03;5360317;32;34605;-68
2022/03/27 12:58:16;;;;;;;;;;;;;;;24.07;20.17;101570.69;5346669;32;35055;-75
2022/03/27 13:01:20;;;;;;;12.10;7.15;;;;;;;24.36;19.85;101564.91;5375888;32;34963;-68
2022/03/27 13:04:23;;;;;;;13.68;6.82;;;;;;;24.93;19.14;101559.41;5357745;32;34843;-74
2022/03/27 13:07:53;;;;;;;12.48;6.85;;;;;;;25.10;18.72;101556.22;5372190;32;34654;-70
2022/03/27 13:10:59;;;;;;;13.07;7.00;;;;;;;24.19;19.78;101552.75;5361383;32;34947;-76
2022/03/27 13:14:02;;;;;;;10.68;6.93;;;;;;;25.10;18.95;101542.78;5368409;32;34398;-75
2022/03/27 13:17:12;;;;;;;12.98;7.22;;;;;;;26.98;16.98;101531.97;5356406;32;44482;-75
2022/03/27 13:20:28;;;;;;;17.67;6.95;;;;;;;25.41;18.27;101534.84;5353891;32;34423;-68
2022/03/27 13:23:30;;;;;;;13.43;7.07;;;;;;;27.61;16.35;101528.06;5373169;32;35374;-68
2022/03/27 13:26:33;;;;;;;;;;;;;;;28.60;15.20;101516.78;5351188;32;241972;-69
2022/03/27 13:29:36;;;;;;;10.63;6.47;;;;;;;28.39;15.18;101524.25;5363413;32;45197;-69
2022/03/27 13:32:38;;;;;;;13.77;6.85;;;;;;;24.46;19.16;101529.13;5356263;32;35382;-68
2022/03/27 13:35:46;;;;;;;13.65;7.10;;;;;;;25.12;18.62;101519.31;5344324;32;34939;-74
2022/03/27 13:38:49;;;;;;;14.43;8.63;;;;;;;23.04;20.73;101529.22;5364206;32;34360;-79
2022/03/27 13:45:12;;;;;;;14.25;6.72;;;;;;;20.41;24.27;101530.06;5374528;32;44929;-67
2022/03/27 13:48:14;;;;;;;16.65;7.45;;;;;;;21.50;23.07;101523.97;5362442;32;35060;-76
2022/03/27 13:51:16;;;;;;;14.82;6.85;;;;;;;19.86;25.14;101528.97;5362611;32;33322;-69
2022/03/27 13:54:20;;;;;;;12.80;7.12;;;;;;;19.55;25.88;101519.22;5379154;32;34753;-77
2022/03/27 13:57:23;;;;;;;15.13;7.40;;;;;;;19.72;25.57;101518.28;5342504;32;35302;-68
2022/03/27 14:00:26;;;;;;;12.63;6.53;;;;;;;20.31;24.83;101519.13;5375943;32;35128;-69
2022/03/27 14:03:28;;;;;;;13.15;6.60;;;;;;;20.08;25.09;101514.31;5359367;32;34769;-70
2022/03/27 14:06:31;;;;;;;13.73;6.97;;;;;;;19.80;25.35;101510.66;5368897;32;34930;-69
2022/03/27 14:09:34;;;;;;;13.88;7.05;;;;;;;20.84;24.02;101506.88;5367425;32;34404;-68
2022/03/27 14:12:37;;;;;;;12.57;7.68;;;;;;;20.39;24.58;101505.28;5359643;32;45219;-68
2022/03/27 14:15:39;;;;;;;15.90;7.37;;;;;;;20.51;24.56;101507.22;5372297;32;34175;-73
2022/03/27 14:18:42;;;;;;;14.02;7.43;;;;;;;19.04;26.58;101507.97;5358225;32;34889;-74
2022/03/27 14:21:44;;;;;;;15.10;8.15;;;;;;;19.31;26.13;101508.19;5348695;32;35132;-69
2022/03/27 14:24:49;;;;;;;13.38;6.72;;;;;;;20.63;24.26;101500.25;5363104;32;34757;-68
2022/03/27 14:27:51;;;;;;;13.80;6.70;;;;;;;19.64;25.67;101492.06;5363850;32;34598;-78